• Join FlightAware (Why Join?)
  • Login
  • US Flag 
01:11PM EDT


 

Airport Tracker/Info


-or-


 

Live Flight TrackerFlight Track Log ✈ AAL1398 ✈ 24-Apr-2013 ✈ MDSD / SDQ - KMIA

Flight Track Log - Related Links

Times and Time Zones

All times are in EDT time to prevent confusion due to time zone crossing. See the AAL1398 flight status page for this flight to view local times or setup timezone preferences in your user account.

Time Position Orientation Groundspeed Altitude Reporting Facility
EDT Latitude Longitude Course Direction KTS MPH feet Rate Location/Type
12:38PM 18.6708 -69.8250 328° Northwest  Level FlightAware Approximate
12:39PM 18.7564 -69.8820 328° Northwest  Level FlightAware Approximate
12:40PM 18.8430 -69.9373 329° Northwest  Level FlightAware Approximate
12:41PM 18.9298 -69.9923 327° Northwest  Level FlightAware Approximate
12:42PM 19.0147 -70.0506 327° Northwest  Level FlightAware Approximate
12:43PM 19.0995 -70.1090 327° Northwest  Level FlightAware Approximate
12:44PM 19.1844 -70.1674 328° Northwest  Level FlightAware Approximate
12:45PM 19.2700 -70.2244 328° Northwest  Level FlightAware Approximate
12:46PM 19.3544 -70.2835 323° Northwest  Level FlightAware Approximate
12:47PM 19.4352 -70.3481 323° Northwest  Level FlightAware Approximate
12:47PM 18.9750 -70.4161 322° Northwest 437 503 30,000  Level Miami Center
12:48PM 19.5173 -70.4107 330° Northwest  Level FlightAware Approximate
12:48PM 19.0769 -70.4642 336° Northwest 416 479 31,800  Level Miami Center
12:49PM 19.6049 -70.4645 330° Northwest  Level FlightAware Approximate
12:49PM 19.1769 -70.5144 335° Northwest 402 463 33,700  Level Miami Center
12:50PM 19.6924 -70.5184 330° Northwest  Level FlightAware Approximate
12:50PM 19.2786 -70.5625 336° Northwest 397 457 35,200  Level Miami Center
12:51PM 19.7712 -70.5833 North  Level FlightAware Approximate
12:51PM 19.3783 -70.6108 335° Northwest 397 457 36,400  Level Miami Center
12:52PM 19.8521 -70.6435 321° Northwest  Level FlightAware Approximate
12:52PM 19.4803 -70.6611 335° Northwest 392 451 37,600  Level Miami Center
12:53PM 19.9305 -70.7115 322° Northwest  Level FlightAware Approximate
12:53PM 19.5803 -70.7117 335° Northwest 392 451 38,000  Level Miami Center
12:54PM 19.6861 -70.7600 337° Northwest 392 451 38,000  Level Miami Center
12:55PM 19.7861 -70.8083 336° Northwest 392 451 38,000  Level Miami Center
12:56PM 19.8900 -70.8611 334° Northwest 397 457 38,000  Level Miami Center
12:57PM 19.9919 -70.9119 335° Northwest 402 463 38,000  Level Miami Center
12:58PM 20.0961 -70.9625 335° Northwest 407 468 38,000  Level Miami Center
12:59PM 20.1981 -71.0133 335° Northwest 407 468 38,000  Level Miami Center
01:00PM 20.3000 -71.0644 335° Northwest 407 468 38,000  Level Miami Center
01:01PM 20.3997 -71.1175 333° Northwest 407 468 38,000  Level Miami Center
01:02PM 20.4678 -71.2056 310° West 390 449 38,000  Level Miami Center
01:03PM 20.5275 -71.3003 304° West 385 443 38,000  Level Miami Center
01:04PM 20.5869 -71.3953 304° West 385 443 38,000  Level Miami Center
01:05PM 20.6511 -71.5014 303° West 385 443 38,000  Level Miami Center
01:06PM 20.7108 -71.5964 304° West 385 443 38,000  Level Miami Center
01:07PM 20.7703 -71.6939 303° West 385 443 38,000  Level Miami Center
01:08PM 20.8297 -71.7872 304° West 385 443 38,000  Level Miami Center
01:09PM 20.8892 -71.8847 303° West 385 443 38,000  Level Miami Center
01:10PM 20.9506 -71.9803 305° West 385 443 38,000  Level Miami Center
01:11PM 21.0078 -72.0758 303° West 385 443 38,000  Level Miami Center
01:12PM 21.0672 -72.1739 303° West 385 443 38,000  Level Miami Center
01:13PM 21.1264 -72.2694 304° West 385 443 38,000  Level Miami Center
01:14PM 21.1856 -72.3678 303° West 385 443 38,000  Level Miami Center
01:16PM 21.2596 -72.4885 303° West  Level FlightAware Approximate
01:16PM 21.3017 -72.5575 303° West 385 443 38,000  Level Miami Center
01:17PM 21.3628 -72.6514 305° West 385 443 38,000  Level Miami Center
01:18PM 21.4217 -72.7475 303° West 385 443 38,000  Level Miami Center
01:19PM 21.4764 -72.8439 301° West 380 437 38,000  Level Miami Center
01:20PM 21.5372 -72.9381 305° West 380 437 38,000  Level Miami Center
01:21PM 21.5961 -73.0347 303° West 385 443 38,000  Level Miami Center
01:22PM 21.6547 -73.1289 304° West 385 443 38,000  Level Miami Center
01:23PM 21.7133 -73.2256 303° West 385 443 38,000  Level Miami Center
01:24PM 21.7700 -73.3222 302° West 385 443 38,000  Level Miami Center
01:25PM 21.8286 -73.4214 302° West 385 443 38,000  Level Miami Center
01:26PM 21.8831 -73.5183 301° West 385 443 38,000  Level Miami Center
01:27PM 21.9414 -73.6153 303° West 385 443 38,000  Level Miami Center
01:28PM 21.9978 -73.7103 303° West 385 443 38,000  Level Miami Center
01:29PM 22.0414 -73.7989 298° West 380 437 38,000  Level Miami Center
01:30PM 22.1017 -73.8939 304° West 380 437 38,000  Level Miami Center
01:31PM 22.1578 -73.9911 302° West 380 437 38,000  Level Miami Center
01:32PM 22.2181 -74.0864 304° West 385 443 38,000  Level Miami Center
01:33PM 22.2719 -74.1794 302° West 380 437 38,000  Level Miami Center
01:34PM 22.3300 -74.2769 303° West 385 443 38,000  Level Miami Center
01:35PM 22.3858 -74.3725 302° West 385 443 38,000  Level Miami Center
01:36PM 22.4439 -74.4681 303° West 385 443 38,000  Level Miami Center
01:37PM 22.5017 -74.5658 303° West 385 443 38,000  Level Miami Center
01:38PM 22.5575 -74.6617 302° West 385 443 38,000  Level Miami Center
01:39PM 22.6131 -74.7550 303° West 380 437 38,000  Level Miami Center
01:40PM 22.6689 -74.8533 302° West 380 437 38,000  Level Miami Center
01:41PM 22.7264 -74.9492 303° West 385 443 38,000  Level Miami Center
01:42PM 22.7819 -75.0453 302° West 380 437 38,000  Level Miami Center
01:43PM 22.8394 -75.1436 302° West 385 443 38,000  Level Miami Center
01:44PM 22.8950 -75.2397 302° West 385 443 38,000  Level Miami Center
01:45PM 22.9503 -75.3361 302° West 385 443 38,000  Level Miami Center
01:46PM 23.0075 -75.4325 303° West 385 443 38,000  Level Miami Center
01:47PM 23.0628 -75.5289 302° West 385 443 38,000  Level Miami Center
01:48PM 23.1181 -75.6256 302° West 385 443 38,000  Level Miami Center
01:49PM 23.1731 -75.7244 301° West 385 443 38,000  Level Miami Center
01:50PM 23.2344 -75.8325 302° West 380 437 38,000  Level Miami Center
01:51PM 23.2914 -75.9314 302° West 386 444 38,000  Level Miami Center
01:52PM 23.3486 -76.0283 303° West 386 444 38,000  Level Miami Center
01:53PM 23.4056 -76.1275 302° West 381 438 38,000  Level Miami Center
01:54PM 23.4622 -76.2247 302° West 381 438 38,000  Level Miami Center
01:55PM 23.5169 -76.3219 302° West 381 438 38,000  Level Miami Center
01:56PM 23.5739 -76.4192 303° West 381 438 38,000  Level Miami Center
01:57PM 23.6306 -76.5164 302° West 381 438 38,000  Level Miami Center
01:58PM 23.6872 -76.6139 302° West 381 438 38,000  Level Miami Center
01:59PM 23.7417 -76.7136 301° West 381 438 38,000  Level Miami Center
02:00PM 23.7958 -76.8111 301° West 381 438 38,000  Level Miami Center
02:01PM 23.8503 -76.9111 301° West 381 438 38,000  Level Miami Center
02:02PM 23.8983 -76.9975 301° West 381 438 38,000  Level Miami Center
02:03PM 23.9547 -77.0953 302° West 381 438 38,000  Level Miami Center
02:04PM 24.0108 -77.1956 302° West 388 447 38,000  Level Miami Center
02:05PM 24.0650 -77.2958 301° West 383 441 38,000  Level Miami Center
02:06PM 24.1211 -77.3961 302° West 383 441 38,000  Level Miami Center
02:07PM 24.1750 -77.4967 300° West 383 441 38,000  Level Miami Center
02:08PM 24.2308 -77.5994 301° West 383 441 38,000  Level Miami Center
02:09PM 24.2869 -77.6978 302° West 383 441 38,000  Level Miami Center
02:10PM 24.3406 -77.7964 301° West 383 441 38,000  Level Miami Center
02:11PM 24.4067 -77.9178 301° West 383 441 38,000  Level Miami Center
02:12PM 24.4519 -78.0003 301° West 375 432 38,000  Level Miami Center
02:13PM 24.5078 -78.0967 302° West 380 437 38,000  Level Miami Center
02:14PM 24.5611 -78.1933 301° West 380 437 38,000 -360 Level Miami Center
02:15PM 24.6167 -78.2967 301° West 386 444 37,300 -1,200 Descending Miami Center
02:16PM 24.6742 -78.3956 303° West 386 444 35,700 -1,560 Descending Miami Center
02:17PM 24.7317 -78.5017 301° West 386 444 34,200 -1,620 Descending Miami Center
02:18PM 24.7869 -78.6031 301° West 381 438 32,500 -1,800 Descending Miami Center
02:19PM 24.8442 -78.7114 300° West 397 457 30,700 -1,740 Descending Miami Center
02:20PM 24.9053 -78.8178 302° West 407 468 29,100 -1,500 Descending Miami Center
02:21PM 24.9603 -78.9311 298° West 412 474 27,700 -1,320 Descending Miami Center
02:22PM 25.0339 -79.0469 305° West 412 474 26,500 -1,380 Descending Miami Center
02:23PM 25.0864 -79.1556 298° West 412 474 25,000 -2,040 Descending Miami Center
02:24PM 25.1453 -79.2647 301° West 407 468 22,500 -2,460 Descending Miami Center
02:25PM 25.2000 -79.3667 301° West 407 468 20,100 -2,400 Descending Miami Center
02:26PM 25.2567 -79.4714 301° West 402 463 17,800 -2,580 Descending Miami Center
02:27PM 25.3153 -79.5875 299° West 386 444 14,800 -2,520 Descending Miami Center
02:28PM 25.3639 -79.6736 302° West 390 449 12,800 -2,280 Descending Miami Center
02:29PM 25.3900 -79.7272 298° West 371 427 11,600 -1,800 Descending Miami Center
02:29PM 25.4183 -79.7669 308° West 377 434 11,000 -1,140 Descending Miami Center
02:30PM 25.4425 -79.8111 301° West 296 341 10,500 -1,140 Descending Miami Center
02:30PM 25.4669 -79.8442 309° West 342 394 9,900 -1,500 Descending Miami Center
02:31PM 25.4933 -79.8861 305° West 292 336 9,000 -1,320 Descending Miami Center
02:31PM 25.5136 -79.9142 309° West 309 356 8,600 -780 Descending Miami Center
02:32PM 25.5378 -79.9539 304° West 294 338 8,300 -600 Descending Miami Center
02:32PM 25.5622 -79.9869 309° West 298 343 8,000 -240 Descending Miami Center
02:33PM 25.5822 -80.0267 299° West 292 336 8,100  Climbing Miami Center
02:33PM 25.6086 -80.0594 312° West 293 337 8,000  Descending Miami Center
02:34PM 25.6328 -80.1017 302° West 292 336 8,100  Climbing Miami Center
02:34PM 25.6761 -80.1328 327° Northwest 332 382 8,000  Descending Miami Center
02:35PM 25.6728 -80.1903 266° West 292 336 8,100  Climbing Miami Center
02:35PM 25.6825 -80.2158 293° West 285 328 8,000  Descending Miami Center
02:36PM 25.6917 -80.2714 280° West 291 335 8,100  Climbing Miami Center
02:36PM 25.7056 -80.2994 299° West 285 328 8,000 -660 Descending Miami Center
02:37PM 25.7089 -80.3411 275° West 247 284 7,500 -900 Descending Miami Center
02:37PM 25.7100 -80.3758 272° West 273 314 7,100 -1,320 Descending Miami Center
02:38PM 25.7028 -80.4169 259° West 235 270 6,200 -1,620 Descending Miami Center
02:39PM 25.7033 -80.4886 271° West 232 267 4,700 -1,320 Descending Miami Center
02:40PM 25.7333 -80.5356 305° West 206 237 3,500 -840 Descending Miami Center
02:41PM 25.7697 -80.4997 42° Northeast 166 191 3,000 -540 Descending Miami Center